Time;durP1;ratioP1;P1;durP2;ratioP2;P2;SDS_P1;SDS_P2;PMS_P1;PMS_P2;Temp;Humidity;BMP_temperature;BMP_pressure;BME280_temperature;BME280_humidity;BME280_pressure;Samples;Min_cycle;Max_cycle;Signal;HPM_P1;HPM_P2
2022/06/28 00:01:34;;;;;;;7.57;7.07;;;21.90;99.90;;;;;;5033560;28;20508;-77
2022/06/28 00:04:01;;;;;;;8.60;7.90;;;21.70;99.90;;;;;;5032999;28;20454;-76
2022/06/28 00:06:28;;;;;;;9.90;9.10;;;21.60;99.90;;;;;;5033492;28;20961;-76
2022/06/28 00:08:56;;;;;;;9.13;8.33;;;21.50;99.90;;;;;;5033253;28;20853;-75
2022/06/28 00:11:23;;;;;;;11.23;10.27;;;21.40;99.90;;;;;;5033019;28;20944;-75
2022/06/28 00:13:49;;;;;;;11.50;10.40;;;21.20;99.90;;;;;;5033038;28;20450;-75
2022/06/28 00:16:16;;;;;;;10.73;9.83;;;21.00;99.90;;;;;;5033071;28;20494;-75
2022/06/28 00:18:44;;;;;;;13.33;12.23;;;20.80;99.90;;;;;;5032770;28;20466;-75
2022/06/28 00:21:11;;;;;;;12.37;11.17;;;20.70;99.90;;;;;;5033191;28;20447;-76
2022/06/28 00:23:40;;;;;;;12.50;11.40;;;20.50;99.90;;;;;;5033015;28;20450;-76
2022/06/28 00:26:08;;;;;;;13.67;10.77;;;20.40;99.90;;;;;;5032688;28;20443;-76
2022/06/28 00:28:35;;;;;;;13.10;11.90;;;20.30;99.90;;;;;;5033010;28;20502;-76
2022/06/28 00:31:02;;;;;;;12.70;11.57;;;20.30;99.90;;;;;;5033017;28;20451;-76
2022/06/28 00:33:29;;;;;;;13.50;11.00;;;20.20;99.90;;;;;;5032777;28;20446;-76
2022/06/28 00:35:55;;;;;;;13.60;12.40;;;20.10;99.90;;;;;;5032989;28;20501;-76
2022/06/28 00:38:22;;;;;;;13.10;12.10;;;20.10;99.90;;;;;;5032886;28;20475;-76
2022/06/28 00:40:51;;;;;;;12.03;10.97;;;20.10;99.90;;;;;;5032825;28;20459;-76
2022/06/28 00:43:20;;;;;;;14.27;12.93;;;20.10;99.90;;;;;;5032690;28;20504;-76
2022/06/28 00:45:48;;;;;;;13.00;11.80;;;20.10;99.90;;;;;;5032938;28;20454;-77
2022/06/28 00:48:17;;;;;;;14.70;13.17;;;20.00;99.90;;;;;;5032518;28;21020;-76
2022/06/28 00:50:44;;;;;;;22.40;13.30;;;20.10;99.90;;;;;;5032960;28;20466;-76
2022/06/28 00:53:13;;;;;;;14.27;12.70;;;20.10;99.90;;;;;;5032864;28;20831;-76
2022/06/28 00:55:41;;;;;;;13.43;12.23;;;20.10;99.90;;;;;;5032826;28;20454;-76
2022/06/28 00:58:09;;;;;;;13.93;12.57;;;20.10;99.90;;;;;;5032769;28;20509;-76
2022/06/28 01:00:41;;;;;;;13.13;12.07;;;20.10;99.90;;;;;;5032940;28;20949;-76
2022/06/28 01:03:09;;;;;;;13.83;12.63;;;20.10;99.90;;;;;;5032665;28;20431;-76
2022/06/28 01:05:37;;;;;;;15.13;13.00;;;20.10;99.90;;;;;;5032926;28;20512;-76
2022/06/28 01:08:05;;;;;;;15.00;13.67;;;20.00;99.90;;;;;;5032718;28;20906;-76
2022/06/28 01:10:32;;;;;;;13.90;12.70;;;20.00;99.90;;;;;;5033325;28;20431;-76
2022/06/28 01:12:59;;;;;;;14.77;13.47;;;20.10;99.90;;;;;;5032764;28;20450;-76
2022/06/28 01:15:26;;;;;;;15.57;14.13;;;20.10;99.90;;;;;;5035433;28;20802;-76
2022/06/28 01:17:55;;;;;;;13.57;12.33;;;20.10;99.90;;;;;;5036451;28;20512;-76
2022/06/28 01:20:22;;;;;;;12.57;11.37;;;20.10;99.90;;;;;;5036339;28;20451;-76
2022/06/28 01:22:51;;;;;;;12.97;11.87;;;20.00;99.90;;;;;;5036106;28;20454;-76
2022/06/28 01:25:18;;;;;;;14.07;12.80;;;20.10;99.90;;;;;;5036354;28;20466;-76
2022/06/28 01:27:45;;;;;;;13.43;12.27;;;20.20;99.90;;;;;;5035929;28;20557;-76
2022/06/28 01:30:12;;;;;;;14.47;13.20;;;20.20;99.90;;;;;;5036180;28;20824;-76
2022/06/28 01:32:39;;;;;;;14.93;13.60;;;20.20;99.90;;;;;;5035894;28;20999;-76
2022/06/28 01:35:06;;;;;;;13.83;11.70;;;20.20;99.90;;;;;;5035932;28;20455;-76
2022/06/28 01:37:32;;;;;;;12.67;11.57;;;20.10;99.90;;;;;;5036003;28;20483;-76
2022/06/28 01:40:01;;;;;;;13.90;12.53;;;20.10;99.90;;;;;;5036014;28;20470;-77
2022/06/28 01:42:29;;;;;;;13.60;12.23;;;20.10;99.90;;;;;;5036072;28;21000;-76
2022/06/28 01:44:56;;;;;;;14.83;13.30;;;20.10;99.90;;;;;;5036092;28;20450;-76
2022/06/28 01:47:25;;;;;;;13.07;11.87;;;20.10;99.90;;;;;;5035867;28;20446;-76
2022/06/28 01:49:52;;;;;;;12.70;11.47;;;20.20;99.90;;;;;;5035766;28;20466;-76
2022/06/28 01:52:19;;;;;;;13.50;11.83;;;20.10;99.90;;;;;;5035531;28;20477;-76
2022/06/28 01:54:46;;;;;;;13.33;12.10;;;20.10;99.90;;;;;;5035300;28;20942;-76
2022/06/28 01:57:15;;;;;;;13.40;12.10;;;20.00;99.90;;;;;;5035571;28;20478;-76
2022/06/28 01:59:44;;;;;;;16.00;14.47;;;20.00;99.90;;;;;;5035310;28;20474;-76
2022/06/28 02:02:10;;;;;;;14.10;12.87;;;20.10;99.90;;;;;;5035317;28;20447;-76
2022/06/28 02:04:37;;;;;;;14.47;13.17;;;20.00;99.90;;;;;;5035536;28;20457;-76
2022/06/28 02:07:05;;;;;;;14.43;13.13;;;20.00;99.90;;;;;;5035391;28;20469;-76
2022/06/28 02:09:32;;;;;;;13.60;12.30;;;20.00;99.90;;;;;;5035473;28;20489;-75
2022/06/28 02:11:59;;;;;;;13.20;11.90;;;20.00;99.90;;;;;;5035505;28;20458;-76
2022/06/28 02:14:27;;;;;;;14.20;12.90;;;20.00;99.90;;;;;;5035778;28;20504;-76
2022/06/28 02:16:56;;;;;;;14.83;13.43;;;20.10;99.90;;;;;;5035207;28;21026;-77
2022/06/28 02:19:23;;;;;;;14.27;13.03;;;20.10;99.90;;;;;;5035322;28;21179;-76
2022/06/28 02:21:49;;;;;;;15.00;13.57;;;19.90;99.90;;;;;;5034955;28;20545;-76
2022/06/28 02:24:16;;;;;;;14.70;13.33;;;19.90;99.90;;;;;;5035145;28;20446;-75
2022/06/28 02:26:43;;;;;;;14.90;12.87;;;19.90;99.90;;;;;;5034458;28;20470;-76
2022/06/28 02:29:10;;;;;;;14.13;12.93;;;;;;;;;;5034626;28;21023;-75
2022/06/28 02:31:38;;;;;;;13.30;12.10;;;19.90;99.90;;;;;;5035016;28;20478;-75
2022/06/28 02:34:05;;;;;;;12.63;11.63;;;19.90;99.90;;;;;;5035050;28;20450;-75
2022/06/28 02:42:01;;;;;;;13.00;11.80;;;19.70;99.90;;;;;;5035347;28;21020;-76
2022/06/28 02:44:28;;;;;;;14.60;13.23;;;19.70;99.90;;;;;;5035018;28;20794;-76
2022/06/28 02:46:56;;;;;;;13.23;12.13;;;19.70;99.90;;;;;;5034921;28;20439;-77
2022/06/28 02:49:23;;;;;;;14.03;12.70;;;19.80;99.90;;;;;;5034635;28;20470;-76
2022/06/28 02:51:49;;;;;;;14.03;12.77;;;19.80;99.90;;;;;;5034474;28;20969;-76
2022/06/28 02:54:16;;;;;;;14.00;12.80;;;19.70;99.90;;;;;;5034730;28;20450;-76
2022/06/28 02:56:44;;;;;;;14.47;13.10;;;19.90;99.90;;;;;;5034181;28;21005;-76
2022/06/28 02:59:11;;;;;;;13.03;11.93;;;19.90;99.90;;;;;;5034538;28;20513;-76
2022/06/28 03:01:38;;;;;;;11.13;10.23;;;19.90;99.90;;;;;;5034163;28;20454;-76
2022/06/28 03:04:06;;;;;;;10.93;9.93;;;19.90;99.90;;;;;;5035482;28;20451;-76
2022/06/28 03:06:33;;;;;;;10.33;9.33;;;19.90;99.90;;;;;;5034694;28;20941;-76
2022/06/28 03:09:00;;;;;;;9.97;9.07;;;19.90;99.90;;;;;;5034088;28;20478;-76
2022/06/28 03:11:26;;;;;;;9.83;8.90;;;19.90;99.90;;;;;;5034335;28;20450;-76
2022/06/28 03:13:53;;;;;;;9.73;8.97;;;19.80;99.90;;;;;;5034515;28;20817;-76
2022/06/28 03:16:20;;;;;;;8.97;8.17;;;19.90;99.90;;;;;;5034132;28;20450;-76
2022/06/28 03:18:46;;;;;;;9.83;8.83;;;19.70;99.90;;;;;;5034086;28;20850;-76
2022/06/28 03:21:15;;;;;;;12.03;11.03;;;19.70;99.90;;;;;;5033843;28;20942;-76
2022/06/28 03:23:41;;;;;;;9.60;8.60;;;19.70;99.90;;;;;;5034100;28;20521;-76
2022/06/28 03:26:08;;;;;;;8.43;7.73;;;19.70;99.90;;;;;;5034126;28;20447;-76
2022/06/28 03:28:35;;;;;;;8.43;7.73;;;19.60;99.90;;;;;;5033968;28;20470;-76
2022/06/28 03:31:02;;;;;;;10.40;9.07;;;19.50;99.90;;;;;;5034512;28;20973;-75
2022/06/28 03:33:29;;;;;;;9.63;8.73;;;19.40;99.90;;;;;;5034618;28;20450;-75
2022/06/28 03:35:56;;;;;;;8.17;7.47;;;19.30;99.90;;;;;;5033998;28;20454;-75
2022/06/28 03:38:24;;;;;;;8.60;7.80;;;19.10;99.90;;;;;;5032834;28;20497;-76
2022/06/28 03:40:51;;;;;;;8.00;7.27;;;19.00;99.90;;;;;;5033432;28;20447;-76
2022/06/28 03:43:17;;;;;;;10.17;9.17;;;18.90;99.90;;;;;;5033736;28;20458;-75
2022/06/28 03:45:44;;;;;;;11.37;10.27;;;19.00;99.90;;;;;;5033632;28;20469;-76
2022/06/28 03:48:11;;;;;;;9.57;8.67;;;19.00;99.90;;;;;;5033426;28;20470;-76
2022/06/28 03:50:37;;;;;;;10.60;9.60;;;18.90;99.90;;;;;;5033501;28;20450;-76
2022/06/28 03:53:04;;;;;;;9.90;8.90;;;19.00;99.90;;;;;;5033546;28;20442;-76
2022/06/28 03:55:32;;;;;;;9.33;8.50;;;19.00;99.90;;;;;;5033109;28;20451;-76
2022/06/28 03:57:59;;;;;;;9.43;8.53;;;19.00;99.90;;;;;;5033357;28;20498;-76
2022/06/28 04:00:26;;;;;;;14.43;11.47;;;19.00;99.90;;;;;;5033439;28;20462;-76
2022/06/28 04:02:52;;;;;;;18.17;15.93;;;19.00;99.90;;;;;;5033506;28;20458;-76
2022/06/28 04:05:19;;;;;;;7.70;6.97;;;19.00;99.90;;;;;;5034162;28;20458;-76
2022/06/28 04:07:46;;;;;;;9.50;8.60;;;19.00;99.90;;;;;;5033711;28;20945;-75
2022/06/28 04:10:13;;;;;;;8.70;7.97;;;19.00;99.90;;;;;;5033554;28;20431;-76
2022/06/28 04:12:41;;;;;;;9.20;8.40;;;19.10;99.90;;;;;;5032951;28;20968;-76
2022/06/28 04:15:08;;;;;;;8.37;7.67;;;19.10;99.90;;;;;;5033013;28;20490;-76
2022/06/28 04:17:35;;;;;;;13.17;11.77;;;19.10;99.90;;;;;;5033229;28;20482;-76
2022/06/28 04:20:02;;;;;;;7.73;7.03;;;19.20;99.90;;;;;;5033359;28;20470;-77
2022/06/28 04:22:28;;;;;;;6.40;5.90;;;19.10;99.90;;;;;;5033618;28;20829;-76
2022/06/28 04:24:55;;;;;;;7.57;6.83;;;19.20;99.90;;;;;;5035399;28;20451;-75
2022/06/28 04:27:22;;;;;;;11.80;10.70;;;19.20;99.90;;;;;;5034401;28;20443;-75
2022/06/28 04:29:50;;;;;;;19.83;17.60;;;19.10;99.90;;;;;;5033773;28;20473;-75
2022/06/28 04:32:16;;;;;;;8.40;7.00;;;19.20;99.90;;;;;;5033541;28;20461;-75
2022/06/28 04:34:43;;;;;;;7.67;7.00;;;19.20;99.90;;;;;;5034348;28;20481;-75
2022/06/28 04:37:10;;;;;;;9.70;8.80;;;19.00;99.90;;;;;;5033551;28;20482;-75
2022/06/28 04:39:37;;;;;;;12.80;11.50;;;19.10;99.90;;;;;;5033743;28;20478;-75
2022/06/28 04:42:05;;;;;;;7.00;6.50;;;19.00;99.90;;;;;;5033493;28;20447;-76
2022/06/28 04:44:32;;;;;;;11.90;10.60;;;18.80;99.90;;;;;;5033943;28;20451;-76
2022/06/28 04:47:00;;;;;;;8.90;7.87;;;18.80;99.90;;;;;;5033549;28;20481;-76
2022/06/28 04:49:26;;;;;;;11.67;9.60;;;18.80;99.90;;;;;;5035218;28;20477;-76
2022/06/28 04:51:53;;;;;;;5.67;5.17;;;18.70;99.90;;;;;;5037406;28;21068;-76
2022/06/28 04:54:20;;;;;;;20.47;17.17;;;18.50;99.90;;;;;;5037565;28;20465;-75
2022/06/28 04:56:47;;;;;;;16.80;14.17;;;18.40;99.90;;;;;;5037291;28;20957;-76
2022/06/28 04:59:13;;;;;;;22.60;17.60;;;18.20;99.90;;;;;;5037406;28;20494;-76
2022/06/28 05:01:40;;;;;;;29.10;22.97;;;18.30;99.90;;;;;;5037223;28;20446;-76
2022/06/28 05:04:08;;;;;;;7.07;6.47;;;18.30;99.90;;;;;;5036943;28;20458;-76
2022/06/28 05:06:35;;;;;;;6.77;6.07;;;18.30;99.90;;;;;;5036454;28;20968;-76
2022/06/28 05:09:02;;;;;;;6.93;6.33;;;18.40;99.90;;;;;;5036274;28;20486;-76
2022/06/28 05:11:29;;;;;;;6.93;6.33;;;18.40;99.90;;;;;;5036566;28;20473;-76
2022/06/28 05:13:55;;;;;;;6.67;6.07;;;18.40;99.90;;;;;;5036661;28;20447;-76
2022/06/28 05:16:22;;;;;;;6.20;5.70;;;18.40;99.90;;;;;;5036829;28;20453;-76
2022/06/28 05:18:49;;;;;;;6.73;6.20;;;18.40;99.90;;;;;;5036458;28;20845;-76
2022/06/28 05:21:17;;;;;;;7.70;7.10;;;18.40;99.90;;;;;;5036452;28;20824;-76
2022/06/28 05:23:44;;;;;;;7.37;6.63;;;18.40;99.90;;;;;;5036767;28;20446;-75
2022/06/28 05:26:11;;;;;;;7.27;6.57;;;18.50;99.90;;;;;;5036485;28;20447;-76
2022/06/28 05:28:38;;;;;;;7.50;6.90;;;18.60;99.90;;;;;;5036815;28;20473;-75
2022/06/28 05:31:04;;;;;;;6.30;5.80;;;18.60;99.90;;;;;;5036270;28;20451;-76
2022/06/28 05:33:31;;;;;;;6.27;5.77;;;18.60;99.90;;;;;;5036218;28;20949;-75
2022/06/28 05:35:58;;;;;;;6.57;6.07;;;18.40;99.90;;;;;;5036178;28;20465;-75
2022/06/28 05:38:28;;;;;;;6.47;5.47;;;18.40;99.90;;;;;;5036465;28;20482;-77
2022/06/28 05:40:58;;;;;;;10.63;6.80;;;18.40;99.90;;;;;;5036592;28;20816;-76
2022/06/28 05:43:25;;;;;;;6.03;5.50;;;18.40;99.90;;;;;;5036223;28;20454;-77
2022/06/28 05:45:51;;;;;;;6.53;6.03;;;18.30;99.90;;;;;;5035975;28;20508;-76
2022/06/28 05:48:18;;;;;;;6.73;6.13;;;18.30;99.90;;;;;;5035708;28;20471;-76
2022/06/28 05:50:45;;;;;;;14.17;7.77;;;18.40;99.90;;;;;;5035456;28;20985;-76
2022/06/28 05:53:19;;;;;;;8.53;7.50;;;18.30;99.90;;;;;;5035919;28;20454;-76
2022/06/28 05:55:48;;;;;;;9.33;8.43;;;18.30;99.90;;;;;;5035958;28;20438;-76
2022/06/28 05:58:14;;;;;;;8.03;7.43;;;18.30;99.90;;;;;;5035260;28;20540;-76
2022/06/28 06:00:41;;;;;;;9.33;8.43;;;18.20;99.90;;;;;;5035052;28;20446;-76
2022/06/28 06:03:08;;;;;;;9.37;8.47;;;18.20;99.90;;;;;;5035537;28;20450;-77
2022/06/28 06:05:35;;;;;;;7.50;6.80;;;18.30;99.90;;;;;;5035732;28;20457;-76
2022/06/28 06:08:01;;;;;;;7.73;7.03;;;18.10;99.90;;;;;;5035284;28;20498;-75
2022/06/28 06:10:28;;;;;;;7.50;6.90;;;18.00;99.90;;;;;;5035469;28;20439;-77
2022/06/28 06:12:56;;;;;;;7.70;7.00;;;18.00;99.90;;;;;;5035435;28;20454;-75
2022/06/28 06:18:26;;;;;;;6.87;6.23;;;18.20;99.90;;;;;;5035144;28;20481;-76
2022/06/28 06:20:53;;;;;;;5.57;5.13;;;18.00;99.90;;;;;;5035334;28;20472;-76
2022/06/28 06:23:20;;;;;;;9.83;7.90;;;18.00;99.90;;;;;;5035145;28;20458;-76
2022/06/28 06:25:47;;;;;;;7.83;6.93;;;18.10;99.90;;;;;;5035074;28;20868;-76
2022/06/28 06:28:15;;;;;;;9.87;6.33;;;18.20;99.90;;;;;;5035004;28;20470;-76
2022/06/28 06:30:41;;;;;;;11.50;7.70;;;18.30;99.90;;;;;;5034802;28;20446;-76
2022/06/28 06:33:08;;;;;;;7.70;6.90;;;18.30;99.90;;;;;;5034918;28;20450;-76
2022/06/28 06:35:35;;;;;;;6.27;5.67;;;18.40;99.90;;;;;;5035001;28;20537;-76
2022/06/28 06:38:02;;;;;;;6.40;5.80;;;18.50;99.90;;;;;;5034792;28;20497;-76
2022/06/28 06:40:29;;;;;;;6.47;5.97;;;18.60;99.90;;;;;;5034882;28;20450;-76
2022/06/28 06:42:56;;;;;;;6.60;6.07;;;18.60;99.90;;;;;;5034800;28;20517;-76
2022/06/28 06:45:25;;;;;;;6.80;6.27;;;18.60;99.90;;;;;;5034753;28;20447;-76
2022/06/28 06:47:52;;;;;;;5.30;4.90;;;18.50;99.90;;;;;;5034211;28;20968;-76
2022/06/28 06:50:20;;;;;;;5.23;4.73;;;18.60;99.90;;;;;;5034205;28;20508;-76
2022/06/28 06:52:46;;;;;;;5.30;4.80;;;18.50;99.90;;;;;;5034545;28;21042;-76
2022/06/28 06:55:13;;;;;;;6.80;4.63;;;18.40;99.90;;;;;;5034311;28;20936;-76
2022/06/28 06:57:40;;;;;;;6.07;4.73;;;18.40;99.90;;;;;;5034237;28;20451;-76
2022/06/28 07:00:09;;;;;;;4.67;4.27;;;18.60;99.90;;;;;;5034343;28;20451;-76
2022/06/28 07:02:41;;;;;;;5.30;4.80;;;18.70;99.90;;;;;;5034795;28;20489;-76
2022/06/28 07:05:08;;;;;;;4.73;4.37;;;19.00;99.90;;;;;;5034410;28;20431;-76
2022/06/28 07:07:35;;;;;;;4.50;4.10;;;19.10;99.90;;;;;;5034323;28;20458;-75
2022/06/28 07:10:03;;;;;;;5.60;4.50;;;19.20;99.90;;;;;;5036318;28;20474;-78
2022/06/28 07:12:30;;;;;;;4.30;3.90;;;19.30;99.90;;;;;;5041247;28;20451;-76
2022/06/28 07:14:56;;;;;;;4.70;4.40;;;19.50;99.90;;;;;;5033971;28;20969;-77
2022/06/28 07:17:23;;;;;;;4.30;4.00;;;19.30;99.90;;;;;;5034175;28;20459;-76
2022/06/28 07:19:51;;;;;;;5.00;4.60;;;19.50;99.90;;;;;;5033843;28;20807;-76
2022/06/28 07:22:18;;;;;;;4.70;4.23;;;19.60;99.90;;;;;;5034746;28;20836;-76
2022/06/28 07:24:45;;;;;;;4.43;4.13;;;19.70;99.90;;;;;;5033966;28;20451;-76
2022/06/28 07:27:11;;;;;;;4.30;4.10;;;19.40;99.90;;;;;;5034063;28;20450;-76
2022/06/28 07:29:38;;;;;;;3.90;3.60;;;19.30;99.90;;;;;;5033343;28;21012;-76
2022/06/28 07:32:06;;;;;;;6.10;3.90;;;19.40;99.90;;;;;;5033738;28;20508;-76
2022/06/28 07:34:32;;;;;;;4.47;4.07;;;19.50;99.90;;;;;;5033761;28;20446;-76
2022/06/28 07:37:00;;;;;;;4.10;3.80;;;19.60;99.90;;;;;;5033420;28;20451;-76
2022/06/28 07:39:27;;;;;;;4.53;4.13;;;19.60;99.90;;;;;;5033590;28;20493;-76
2022/06/28 07:41:54;;;;;;;3.60;3.40;;;19.70;99.90;;;;;;5034146;28;20917;-76
2022/06/28 07:44:21;;;;;;;3.43;3.13;;;19.90;99.90;;;;;;5033048;28;20470;-76
2022/06/28 07:46:48;;;;;;;3.63;3.40;;;19.80;99.90;;;;;;5033596;28;20477;-76
2022/06/28 07:49:14;;;;;;;3.70;3.40;;;20.10;99.90;;;;;;5033483;28;20473;-75
2022/06/28 07:54:27;;;;;;;4.23;3.83;;;20.00;99.90;;;;;;5033716;28;20480;-75
2022/06/28 07:56:53;;;;;;;3.23;3.00;;;19.80;99.90;;;;;;5033597;28;20446;-75
2022/06/28 07:59:20;;;;;;;3.27;3.07;;;19.80;99.90;;;;;;5033559;28;20512;-76
2022/06/28 08:01:47;;;;;;;3.57;3.27;;;20.10;99.90;;;;;;5033895;28;20785;-75
2022/06/28 08:04:14;;;;;;;3.80;3.40;;;20.10;99.90;;;;;;5033850;28;20447;-75
2022/06/28 08:06:41;;;;;;;3.27;3.07;;;20.30;99.90;;;;;;5034933;28;20542;-75
2022/06/28 08:09:08;;;;;;;3.90;3.10;;;20.40;99.90;;;;;;5064637;22;21108;-72
2022/06/28 08:11:36;;;;;;;3.40;3.20;;;20.50;99.90;;;;;;5072691;28;20469;-73
2022/06/28 08:14:03;;;;;;;3.87;3.17;;;20.50;99.90;;;;;;5073671;28;20445;-72
2022/06/28 08:16:30;;;;;;;3.27;3.07;;;20.40;99.90;;;;;;5074299;28;20451;-72
2022/06/28 08:18:57;;;;;;;2.67;2.43;;;20.50;99.90;;;;;;5075516;28;20960;-73
2022/06/28 08:21:24;;;;;;;3.43;3.03;;;20.60;99.90;;;;;;5072513;28;20449;-73
2022/06/28 08:23:50;;;;;;;3.80;3.40;;;20.50;99.90;;;;;;5071640;28;20448;-73
2022/06/28 08:26:17;;;;;;;3.40;3.20;;;20.40;99.90;;;;;;5072148;28;20455;-73
2022/06/28 08:28:45;;;;;;;3.43;3.23;;;20.80;99.90;;;;;;5072491;28;20441;-73
2022/06/28 08:31:12;;;;;;;3.33;3.10;;;21.00;99.90;;;;;;5072441;28;20444;-73
2022/06/28 08:33:39;;;;;;;3.90;3.60;;;20.90;99.90;;;;;;5072481;28;20448;-73
2022/06/28 08:36:07;;;;;;;3.70;3.40;;;21.00;99.90;;;;;;5072570;28;20448;-72
2022/06/28 08:38:34;;;;;;;3.53;3.33;;;21.10;99.90;;;;;;5072445;28;20480;-73
2022/06/28 08:41:02;;;;;;;3.50;3.30;;;20.90;99.90;;;;;;5071945;28;21005;-73
2022/06/28 08:43:31;;;;;;;2.80;2.70;;;21.00;99.90;;;;;;5072377;28;20498;-72
2022/06/28 08:46:00;;;;;;;2.67;2.50;;;21.00;99.90;;;;;;5072181;28;20451;-72
2022/06/28 08:48:34;;;;;;;3.23;3.03;;;21.30;99.90;;;;;;5071911;28;20449;-73
2022/06/28 08:51:01;;;;;;;3.53;3.33;;;21.40;99.90;;;;;;5071900;28;20469;-73
2022/06/28 08:53:29;;;;;;;3.60;3.40;;;21.50;99.90;;;;;;5072103;28;20453;-73
2022/06/28 08:55:57;;;;;;;3.40;3.20;;;21.50;99.90;;;;;;5071776;28;20952;-73
2022/06/28 08:58:23;;;;;;;2.83;2.60;;;21.50;99.90;;;;;;5072075;28;20444;-73
2022/06/28 09:00:51;;;;;;;4.43;4.10;;;21.60;99.90;;;;;;5072039;28;20475;-73
2022/06/28 09:03:19;;;;;;;6.13;4.47;;;21.50;99.90;;;;;;5072086;28;20803;-73
2022/06/28 09:05:46;;;;;;;2.90;2.70;;;21.50;99.90;;;;;;5071920;28;20448;-73
2022/06/28 09:08:13;;;;;;;3.40;3.10;;;21.30;99.90;;;;;;5073517;28;20532;-73
2022/06/28 09:10:40;;;;;;;3.43;3.13;;;21.50;99.90;;;;;;5071591;28;20468;-74
2022/06/28 09:13:12;;;;;;;6.30;3.13;;;21.50;99.90;;;;;;5071979;28;20448;-74
2022/06/28 09:15:53;;;;;;;3.27;3.07;;;21.70;99.90;;;;;;5072672;28;20859;-74
2022/06/28 09:18:23;;;;;;;3.00;2.80;;;21.90;99.90;;;;;;5072235;28;20808;-73
2022/06/28 09:20:53;;;;;;;3.33;3.13;;;22.00;99.90;;;;;;5071636;28;20472;-74
2022/06/28 09:23:28;;;;;;;3.73;3.43;;;22.20;99.90;;;;;;5071658;28;20536;-73
2022/06/28 09:25:57;;;;;;;3.30;3.00;;;22.50;99.90;;;;;;5071687;28;20444;-73
2022/06/28 09:28:27;;;;;;;2.70;2.50;;;22.60;99.90;;;;;;5071923;28;20533;-73
2022/06/28 09:31:13;;;;;;;2.80;2.60;;;22.60;99.90;;;;;;5071992;28;20461;-73
2022/06/28 09:33:42;;;;;;;2.53;2.43;;;22.50;99.90;;;;;;5071804;28;20795;-73
2022/06/28 09:36:11;;;;;;;5.63;2.83;;;22.30;99.90;;;;;;5072255;28;20447;-73
2022/06/28 09:38:38;;;;;;;4.40;2.67;;;22.40;99.90;;;;;;5075032;28;20455;-73
2022/06/28 09:41:05;;;;;;;2.70;2.60;;;22.40;99.90;;;;;;5074979;28;20448;-72
2022/06/28 09:43:33;;;;;;;4.27;2.53;;;22.00;99.90;;;;;;5075001;28;20445;-73
2022/06/28 09:46:04;;;;;;;2.60;2.50;;;21.90;99.90;;;;;;5074884;28;20955;-73
2022/06/28 09:48:35;;;;;;;3.27;3.07;;;21.90;99.90;;;;;;5075347;28;20532;-73
2022/06/28 09:51:04;;;;;;;2.73;2.53;;;22.10;99.90;;;;;;5075016;28;20436;-73
2022/06/28 09:53:33;;;;;;;5.43;3.10;;;22.30;99.90;;;;;;5074909;28;20440;-72
2022/06/28 09:56:03;;;;;;;2.60;2.50;;;22.20;99.90;;;;;;5074647;28;20452;-73
2022/06/28 09:58:31;;;;;;;3.70;3.50;;;22.00;99.90;;;;;;5075367;28;20891;-72
2022/06/28 10:00:58;;;;;;;2.77;2.60;;;22.20;99.90;;;;;;5075085;28;20464;-72
2022/06/28 10:03:25;;;;;;;4.67;3.23;;;22.50;99.90;;;;;;5074753;28;20444;-73
2022/06/28 10:05:54;;;;;;;2.57;2.37;;;22.60;99.90;;;;;;5074657;28;20452;-73
2022/06/28 10:08:23;;;;;;;2.40;2.20;;;22.50;99.90;;;;;;5074368;28;20939;-73
2022/06/28 10:10:51;;;;;;;2.23;1.97;;;22.50;99.90;;;;;;5074347;28;20515;-72
2022/06/28 10:16:10;;;;;;;1.83;1.73;;;22.50;99.90;;;;;;5074775;28;20535;-73
2022/06/28 10:18:39;;;;;;;2.40;2.13;;;22.50;99.90;;;;;;5075111;28;20433;-73
2022/06/28 10:21:05;;;;;;;1.90;1.80;;;22.60;99.90;;;;;;5075253;28;20441;-72
2022/06/28 10:23:40;;;;;;;2.20;1.83;;;22.70;99.90;;;;;;5074914;28;20444;-73
2022/06/28 10:26:11;;;;;;;4.50;1.87;;;22.70;99.90;;;;;;5074746;28;20432;-73
2022/06/28 10:28:41;;;;;;;1.60;1.50;;;22.70;99.90;;;;;;5074300;28;20435;-73
2022/06/28 10:31:37;;;;;;;4.00;1.97;;;22.60;99.90;;;;;;5074877;28;20429;-73
2022/06/28 10:34:07;;;;;;;1.43;1.33;;;22.60;99.90;;;;;;5074415;28;20510;-73
2022/06/28 10:36:49;;;;;;;3.77;1.57;;;22.40;99.90;;;;;;5074213;28;20460;-73
2022/06/28 10:39:20;;;;;;;1.90;1.80;;;22.50;99.90;;;;;;5074079;28;20562;-73
2022/06/28 10:41:48;;;;;;;1.80;1.70;;;22.50;99.90;;;;;;5074718;28;20482;-73
2022/06/28 10:44:18;;;;;;;1.70;1.60;;;22.50;99.90;;;;;;5073757;28;20948;-73
2022/06/28 10:46:57;;;;;;;6.40;4.10;;;22.60;99.90;;;;;;5073560;28;20535;-73
2022/06/28 10:49:24;;;;;;;3.33;1.60;;;22.70;99.90;;;;;;5074039;28;20862;-73
2022/06/28 10:52:13;;;;;;;5.87;4.70;;;22.80;99.90;;;;;;5073786;28;20460;-73
2022/06/28 10:55:04;;;;;;;3.90;3.33;;;23.00;99.90;;;;;;5074188;28;20429;-74
2022/06/28 10:57:36;;;;;;;2.10;1.70;;;23.00;99.90;;;;;;5073290;28;20480;-73
2022/06/28 11:00:07;;;;;;;5.87;1.83;;;22.90;99.90;;;;;;5073827;28;20849;-73
2022/06/28 11:02:46;;;;;;;3.73;2.20;;;22.70;99.90;;;;;;5073850;28;20502;-73
2022/06/28 11:05:13;;;;;;;4.00;1.70;;;22.90;99.90;;;;;;5073926;28;20429;-73
2022/06/28 11:07:44;;;;;;;1.60;1.50;;;22.80;99.90;;;;;;5073339;28;20445;-72
2022/06/28 11:10:16;;;;;;;1.70;1.60;;;22.90;99.90;;;;;;5073083;28;20942;-73
2022/06/28 11:12:43;;;;;;;1.97;1.87;;;22.80;99.90;;;;;;5073449;28;20495;-72
2022/06/28 11:15:11;;;;;;;1.33;1.20;;;22.80;99.90;;;;;;5073621;28;20496;-73
2022/06/28 11:17:41;;;;;;;2.80;2.60;;;22.80;99.90;;;;;;5073209;28;20861;-72
2022/06/28 11:20:11;;;;;;;2.60;2.30;;;22.80;99.90;;;;;;5073070;28;20489;-72
2022/06/28 11:22:43;;;;;;;1.50;1.40;;;22.80;99.90;;;;;;5073392;28;20432;-72
2022/06/28 11:25:13;;;;;;;1.90;1.80;;;23.10;99.90;;;;;;5073396;28;20452;-72
2022/06/28 11:27:46;;;;;;;1.80;1.70;;;23.50;99.90;;;;;;5073192;28;20448;-72
2022/06/28 11:30:14;;;;;;;1.80;1.70;;;23.60;99.90;;;;;;5072879;28;20979;-72
2022/06/28 11:32:43;;;;;;;1.87;1.77;;;23.60;99.90;;;;;;5072801;28;20449;-73
2022/06/28 11:35:12;;;;;;;1.83;1.60;;;23.50;99.90;;;;;;5072980;28;20547;-73
2022/06/28 11:37:53;;;;;;;1.57;1.30;;;23.50;99.90;;;;;;5073291;28;20448;-72
2022/06/28 11:40:23;;;;;;;2.23;2.03;;;23.30;99.90;;;;;;5073677;28;20632;-72
2022/06/28 11:43:01;;;;;;;2.90;1.57;;;23.40;99.90;;;;;;5072984;28;20445;-72
2022/06/28 11:45:29;;;;;;;1.67;1.57;;;23.30;99.90;;;;;;5073626;28;20437;-73
2022/06/28 11:47:56;;;;;;;1.50;1.40;;;23.40;99.90;;;;;;5072902;28;20436;-73
2022/06/28 11:50:23;;;;;;;2.00;1.80;;;23.30;99.90;;;;;;5073091;28;20522;-73
2022/06/28 11:52:52;;;;;;;2.00;1.50;;;23.30;99.90;;;;;;5073274;28;20480;-74
2022/06/28 11:55:37;;;;;;;1.77;1.67;;;23.40;99.90;;;;;;5073047;28;20448;-72
2022/06/28 11:58:15;;;;;;;2.10;2.00;;;23.60;99.90;;;;;;5072941;28;20433;-73
2022/06/28 12:01:00;;;;;;;2.50;2.30;;;23.90;99.90;;;;;;5072301;28;20847;-73
2022/06/28 12:03:27;;;;;;;2.40;1.57;;;23.80;99.90;;;;;;5072815;28;20453;-73
2022/06/28 12:05:57;;;;;;;1.50;1.40;;;23.60;99.90;;;;;;5073450;28;20451;-73
2022/06/28 12:08:42;;;;;;;1.50;1.40;;;23.50;99.90;;;;;;5072513;28;20483;-73
2022/06/28 12:11:26;;;;;;;1.67;1.40;;;23.70;99.90;;;;;;5072982;28;20428;-74
2022/06/28 12:13:56;;;;;;;1.63;1.53;;;23.80;99.90;;;;;;5072963;28;20425;-73
2022/06/28 12:16:23;;;;;;;2.33;1.53;;;23.90;99.90;;;;;;5073453;28;20824;-73
2022/06/28 12:18:53;;;;;;;27.33;2.73;;;24.20;99.90;;;;;;5072759;28;20452;-73
2022/06/28 12:21:20;;;;;;;2.47;1.70;;;24.20;99.90;;;;;;5072597;28;20534;-73
2022/06/28 12:23:51;;;;;;;1.70;1.60;;;24.40;99.90;;;;;;5072779;28;20444;-72
2022/06/28 12:26:19;;;;;;;1.67;1.57;;;24.50;99.90;;;;;;5072588;28;20812;-73
2022/06/28 12:28:46;;;;;;;1.50;1.40;;;24.60;99.90;;;;;;5072519;28;20445;-73
2022/06/28 12:31:13;;;;;;;4.00;1.87;;;24.60;99.90;;;;;;5072706;28;20471;-73
2022/06/28 12:33:39;;;;;;;3.57;2.20;;;24.60;99.90;;;;;;5072601;28;20812;-73
2022/06/28 12:36:06;;;;;;;1.47;1.37;;;24.60;99.90;;;;;;5072461;28;20468;-73
2022/06/28 12:38:33;;;;;;;2.00;1.37;;;24.40;99.90;;;;;;5072571;28;20445;-71
2022/06/28 12:41:00;;;;;;;2.77;2.50;;;24.40;99.90;;;;;;5072340;28;20491;-73
2022/06/28 12:43:28;;;;;;;2.77;2.23;;;24.40;99.90;;;;;;5072423;28;20944;-74
2022/06/28 12:45:55;;;;;;;2.10;2.00;;;24.70;99.90;;;;;;5073280;28;20920;-74
2022/06/28 12:48:22;;;;;;;1.93;1.83;;;24.90;99.90;;;;;;5072506;28;20866;-75
2022/06/28 12:50:48;;;;;;;3.03;2.63;;;25.00;99.90;;;;;;5072626;28;20468;-74
2022/06/28 12:53:15;;;;;;;2.70;1.93;;;24.90;99.90;;;;;;5072456;28;20471;-73
2022/06/28 12:55:42;;;;;;;1.73;1.37;;;24.90;99.90;;;;;;5071920;28;20449;-73
2022/06/28 12:58:09;;;;;;;2.87;2.00;;;24.60;99.90;;;;;;5071949;28;20452;-72
2022/06/28 13:00:37;;;;;;;1.43;1.33;;;24.60;99.90;;;;;;5071843;28;20480;-73